Time;durP1;ratioP1;P1;durP2;ratioP2;P2;SDS_P1;SDS_P2;PMS_P1;PMS_P2;Temp;Humidity;BMP_temperature;BMP_pressure;BME280_temperature;BME280_humidity;BME280_pressure;Samples;Min_cycle;Max_cycle;Signal;HPM_P1;HPM_P2
2022/07/01 00:01:16;;;;;;;13.85;12.65;;;;;;;;;;5065289;28;24464;-48
2022/07/01 00:03:48;;;;;;;13.80;12.60;;;;;;;;;;5073609;28;25041;-47
2022/07/01 00:06:13;;;;;;;13.98;12.77;;;;;;;;;;5062925;28;24765;-48
2022/07/01 00:08:38;;;;;;;14.00;12.70;;;;;;;;;;5061190;28;24430;-47
2022/07/01 00:11:04;;;;;;;13.30;12.20;;;;;;;;;;5060142;28;24480;-47
2022/07/01 00:13:29;;;;;;;13.80;12.40;;;;;;;;;;5061568;28;24517;-47
2022/07/01 00:15:54;;;;;;;13.85;12.45;;;;;;;;;;5054719;28;25155;-47
2022/07/01 00:18:21;;;;;;;13.50;12.30;;;;;;;;;;5065285;28;24430;-47
2022/07/01 00:20:46;;;;;;;14.52;13.02;;;;;;;;;;5071276;28;24434;-46
2022/07/01 00:23:13;;;;;;;13.00;11.90;;;;;;;;;;5060676;28;24431;-46
2022/07/01 00:25:38;;;;;;;13.43;12.23;;;;;;;;;;5061063;28;24480;-46
2022/07/01 00:28:03;;;;;;;13.85;12.55;;;;;;;;;;5062538;28;24419;-46
2022/07/01 00:30:29;;;;;;;13.40;12.00;;;;;;;;;;5068024;28;24506;-47
2022/07/01 00:32:55;;;;;;;13.70;12.45;;;;;;;;;;5065620;28;24886;-46
2022/07/01 00:35:20;;;;;;;13.18;11.98;;;;;;;;;;5064989;28;25047;-46
2022/07/01 00:37:45;;;;;;;13.20;11.80;;;;;;;;;;5059764;28;24514;-47
2022/07/01 00:40:11;;;;;;;13.37;12.07;;;;;;;;;;5064020;28;24434;-47
2022/07/01 00:42:40;;;;;;;12.98;11.77;;;;;;;;;;5068604;28;24726;-47
2022/07/01 00:45:06;;;;;;;14.38;12.98;;;;;;;;;;5063444;28;24992;-47
2022/07/01 00:47:31;;;;;;;14.00;12.63;;;;;;;;;;5071882;28;24439;-47
2022/07/01 00:49:57;;;;;;;14.70;13.40;;;;;;;;;;5061301;28;24477;-47
2022/07/01 00:52:23;;;;;;;13.20;12.10;;;;;;;;;;5063193;28;24450;-46
2022/07/01 00:54:49;;;;;;;14.10;12.80;;;;;;;;;;5062546;28;24426;-46
2022/07/01 00:57:14;;;;;;;14.13;12.73;;;;;;;;;;5063992;28;24429;-47
2022/07/01 00:59:39;;;;;;;13.60;12.50;;;;;;;;;;5061720;28;25095;-47
2022/07/01 01:02:06;;;;;;;13.30;12.10;;;;;;;;;;5062189;28;24722;-46
2022/07/01 01:04:31;;;;;;;13.50;12.30;;;;;;;;;;5063920;28;24948;-46
2022/07/01 01:06:56;;;;;;;13.50;12.40;;;;;;;;;;5064698;28;24971;-47
2022/07/01 01:09:21;;;;;;;14.00;12.70;;;;;;;;;;5064048;28;24433;-47
2022/07/01 01:11:47;;;;;;;14.23;12.93;;;;;;;;;;5057117;28;24423;-47
2022/07/01 01:14:13;;;;;;;13.90;12.60;;;;;;;;;;5061987;28;24437;-47
2022/07/01 01:16:38;;;;;;;14.43;13.03;;;;;;;;;;5064670;28;24509;-47
2022/07/01 01:19:04;;;;;;;14.10;12.80;;;;;;;;;;5067333;28;24510;-47
2022/07/01 01:21:29;;;;;;;13.57;12.37;;;;;;;;;;5062759;28;24459;-47
2022/07/01 01:23:55;;;;;;;13.15;11.88;;;;;;;;;;5072447;28;24414;-47
2022/07/01 01:26:21;;;;;;;13.02;11.82;;;;;;;;;;5064537;28;24439;-47
2022/07/01 01:28:47;;;;;;;13.40;12.20;;;;;;;;;;5064677;28;24422;-47
2022/07/01 01:31:12;;;;;;;13.52;12.43;;;;;;;;;;5065748;28;24480;-47
2022/07/01 01:33:38;;;;;;;13.67;12.30;;;;;;;;;;5061919;28;25043;-47
2022/07/01 01:36:03;;;;;;;13.85;12.52;;;;;;;;;;5065841;28;24475;-47
2022/07/01 01:38:28;;;;;;;13.47;12.17;;;;;;;;;;5065359;28;24430;-47
2022/07/01 01:40:55;;;;;;;13.88;12.57;;;;;;;;;;5068538;28;24447;-47
2022/07/01 01:43:20;;;;;;;14.05;12.75;;;;;;;;;;5058729;28;24849;-47
2022/07/01 01:45:45;;;;;;;14.10;12.80;;;;;;;;;;5060491;28;25032;-47
2022/07/01 01:48:10;;;;;;;15.13;13.53;;;;;;;;;;5058193;28;24946;-47
2022/07/01 01:50:35;;;;;;;13.70;12.50;;;;;;;;;;5057766;28;24433;-47
2022/07/01 01:53:01;;;;;;;14.83;13.53;;;;;;;;;;5061559;28;24884;-47
2022/07/01 01:55:26;;;;;;;14.43;12.93;;;;;;;;;;5061103;28;24419;-48
2022/07/01 01:57:51;;;;;;;14.70;13.40;;;;;;;;;;5062107;28;24458;-47
2022/07/01 02:00:17;;;;;;;15.17;13.77;;;;;;;;;;5062420;28;24431;-47
2022/07/01 02:02:42;;;;;;;14.30;12.90;;;;;;;;;;5063191;28;24519;-47
2022/07/01 02:05:10;;;;;;;14.98;13.50;;;;;;;;;;5060809;28;25267;-47
2022/07/01 02:07:35;;;;;;;13.60;12.40;;;;;;;;;;5064219;28;24897;-47
2022/07/01 02:10:01;;;;;;;13.85;12.55;;;;;;;;;;5066823;28;25020;-47
2022/07/01 02:12:26;;;;;;;13.32;11.93;;;;;;;;;;5064646;28;24429;-47
2022/07/01 02:14:51;;;;;;;13.57;12.37;;;;;;;;;;5056197;28;25008;-47
2022/07/01 02:17:16;;;;;;;13.17;12.03;;;;;;;;;;5063453;28;24455;-47
2022/07/01 02:19:41;;;;;;;15.20;13.70;;;;;;;;;;5063033;28;25094;-47
2022/07/01 02:22:06;;;;;;;13.73;12.52;;;;;;;;;;5063350;28;24423;-47
2022/07/01 02:24:31;;;;;;;13.50;12.20;;;;;;;;;;5066387;28;24422;-47
2022/07/01 02:26:57;;;;;;;13.83;12.60;;;;;;;;;;5061156;28;24495;-47
2022/07/01 02:29:22;;;;;;;13.90;12.52;;;;;;;;;;5064537;28;24418;-47
2022/07/01 02:31:47;;;;;;;13.63;12.43;;;;;;;;;;5065755;28;25052;-47
2022/07/01 02:34:12;;;;;;;14.00;12.70;;;;;;;;;;5067876;28;24505;-47
2022/07/01 02:36:37;;;;;;;14.20;12.90;;;;;;;;;;5064936;28;24447;-47
2022/07/01 02:39:02;;;;;;;13.70;12.50;;;;;;;;;;5075197;28;24435;-47
2022/07/01 02:41:28;;;;;;;13.98;12.57;;;;;;;;;;5080496;28;25924;-46
2022/07/01 02:43:53;;;;;;;14.15;12.95;;;;;;;;;;5065522;28;24871;-45
2022/07/01 02:46:18;;;;;;;14.07;12.68;;;;;;;;;;5067137;28;24446;-46
2022/07/01 02:48:43;;;;;;;13.30;12.00;;;;;;;;;;5061737;28;24450;-46
2022/07/01 02:51:08;;;;;;;14.77;13.37;;;;;;;;;;5067708;28;24530;-46
2022/07/01 02:53:33;;;;;;;13.13;12.00;;;;;;;;;;5066248;28;24425;-46
2022/07/01 02:55:58;;;;;;;13.60;12.50;;;;;;;;;;5064083;28;25195;-46
2022/07/01 02:58:24;;;;;;;12.40;11.27;;;;;;;;;;5065532;28;24532;-45
2022/07/01 03:00:52;;;;;;;12.93;11.83;;;;;;;;;;5067116;28;24418;-47
2022/07/01 03:03:17;;;;;;;14.15;12.65;;;;;;;;;;5067404;28;24544;-47
2022/07/01 03:05:43;;;;;;;13.67;12.37;;;;;;;;;;5061945;28;24450;-47
2022/07/01 03:08:08;;;;;;;14.25;13.00;;;;;;;;;;5064329;28;24976;-47
2022/07/01 03:10:33;;;;;;;12.65;11.45;;;;;;;;;;5087764;28;24987;-46
2022/07/01 03:12:59;;;;;;;13.75;12.55;;;;;;;;;;5075919;28;24484;-47
2022/07/01 03:15:24;;;;;;;12.73;11.43;;;;;;;;;;5066361;28;24422;-46
2022/07/01 03:17:49;;;;;;;13.30;12.00;;;;;;;;;;5068726;28;24437;-47
2022/07/01 03:20:15;;;;;;;12.17;11.10;;;;;;;;;;5087202;28;25093;-47
2022/07/01 03:22:41;;;;;;;12.88;11.57;;;;;;;;;;5082824;28;24525;-47
2022/07/01 03:25:07;;;;;;;13.27;12.07;;;;;;;;;;5086958;28;24568;-46
2022/07/01 03:27:32;;;;;;;13.13;11.63;;;;;;;;;;5073419;28;24978;-47
2022/07/01 03:29:58;;;;;;;12.70;11.67;;;;;;;;;;5077026;28;24422;-48
2022/07/01 03:32:23;;;;;;;12.63;11.33;;;;;;;;;;5073475;28;25214;-47
2022/07/01 03:34:49;;;;;;;13.00;11.70;;;;;;;;;;5082708;28;24430;-47
2022/07/01 03:37:14;;;;;;;12.20;11.10;;;;;;;;;;5072784;28;24928;-47
2022/07/01 03:39:40;;;;;;;12.07;10.63;;;;;;;;;;5072490;28;24569;-47
2022/07/01 03:42:06;;;;;;;12.13;11.02;;;;;;;;;;5064532;28;24522;-47
2022/07/01 03:44:32;;;;;;;11.70;10.50;;;;;;;;;;5060126;28;24435;-47
2022/07/01 03:46:57;;;;;;;11.70;10.60;;;;;;;;;;5075391;28;24781;-46
2022/07/01 03:49:22;;;;;;;11.33;10.37;;;;;;;;;;5080009;28;24442;-47
2022/07/01 03:51:48;;;;;;;11.03;10.03;;;;;;;;;;5066526;28;25006;-46
2022/07/01 03:54:32;;;;;;;11.60;10.60;;;;;;;;;;5075531;28;24428;-46
2022/07/01 03:57:02;;;;;;;11.18;10.07;;;;;;;;;;5076630;28;24769;-46
2022/07/01 03:59:27;;;;;;;12.10;10.80;;;;;;;;;;5062162;28;24461;-46
2022/07/01 04:01:55;;;;;;;10.60;9.70;;;;;;;;;;5063447;28;24948;-46
2022/07/01 04:04:21;;;;;;;11.60;10.60;;;;;;;;;;5060827;28;24857;-47
2022/07/01 04:06:46;;;;;;;10.65;9.75;;;;;;;;;;5062749;28;24953;-47
2022/07/01 04:09:12;;;;;;;11.30;10.40;;;;;;;;;;5061111;28;24793;-47
2022/07/01 04:11:38;;;;;;;13.00;11.70;;;;;;;;;;5059185;28;24586;-48
2022/07/01 04:14:03;;;;;;;11.40;10.40;;;;;;;;;;5065370;28;24427;-47
2022/07/01 04:16:28;;;;;;;11.57;10.40;;;;;;;;;;5067066;28;24415;-46
2022/07/01 04:18:53;;;;;;;10.30;9.40;;;;;;;;;;5067201;28;24603;-46
2022/07/01 04:24:02;;;;;;;10.55;9.55;;;;;;;;;;5059504;28;24422;-47
2022/07/01 04:26:27;;;;;;;10.00;9.20;;;;;;;;;;5062143;28;24430;-47
2022/07/01 04:28:54;;;;;;;10.70;9.80;;;;;;;;;;5059873;28;24683;-47
2022/07/01 04:31:19;;;;;;;10.40;9.40;;;;;;;;;;5063923;28;24474;-47
2022/07/01 04:33:50;;;;;;;10.37;9.57;;;;;;;;;;5065300;28;24423;-47
2022/07/01 04:36:15;;;;;;;11.02;10.13;;;;;;;;;;5060293;28;24427;-48
2022/07/01 04:38:41;;;;;;;12.20;11.20;;;;;;;;;;5058964;28;24414;-46
2022/07/01 04:43:49;;;;;;;11.65;10.60;;;;;;;;;;5057633;28;24500;-46
2022/07/01 04:46:15;;;;;;;10.27;9.38;;;;;;;;;;5051586;28;24435;-47
2022/07/01 04:48:40;;;;;;;12.25;10.98;;;;;;;;;;5055534;28;24420;-47
2022/07/01 04:51:05;;;;;;;10.40;9.57;;;;;;;;;;5057860;28;25027;-46
2022/07/01 04:53:31;;;;;;;10.27;9.38;;;;;;;;;;5070230;28;24428;-47
2022/07/01 04:55:56;;;;;;;11.40;10.50;;;;;;;;;;5055455;28;24887;-47
2022/07/01 04:58:21;;;;;;;10.73;9.82;;;;;;;;;;5059054;28;24434;-47
2022/07/01 05:00:48;;;;;;;10.20;9.40;;;;;;;;;;5050662;28;24415;-48
2022/07/01 05:03:13;;;;;;;9.90;9.00;;;;;;;;;;5062099;28;24442;-48
2022/07/01 05:05:38;;;;;;;10.30;9.40;;;;;;;;;;5059559;28;24508;-47
2022/07/01 05:08:04;;;;;;;11.15;9.02;;;;;;;;;;5056949;28;25199;-48
2022/07/01 05:10:29;;;;;;;9.32;8.52;;;;;;;;;;5074808;28;24418;-47
2022/07/01 05:12:55;;;;;;;9.10;8.40;;;;;;;;;;5062680;28;24437;-47
2022/07/01 05:15:20;;;;;;;9.20;8.40;;;;;;;;;;5064462;28;24825;-47
2022/07/01 05:23:13;;;;;;;8.20;7.50;;;;;;;;;;5063242;28;24433;-48
2022/07/01 05:25:38;;;;;;;8.40;7.80;;;;;;;;;;5064284;28;24432;-48
2022/07/01 05:28:04;;;;;;;8.57;7.97;;;;;;;;;;5063520;28;24968;-48
2022/07/01 05:30:29;;;;;;;8.57;7.90;;;;;;;;;;5065844;28;24383;-49
2022/07/01 05:32:54;;;;;;;9.25;8.45;;;;;;;;;;5065722;28;24387;-47
2022/07/01 05:35:19;;;;;;;8.50;7.72;;;;;;;;;;5064689;28;24964;-47
2022/07/01 05:37:44;;;;;;;9.30;8.50;;;;;;;;;;5065779;28;24529;-48
2022/07/01 05:40:10;;;;;;;9.18;8.38;;;;;;;;;;5065217;28;24709;-48
2022/07/01 05:42:35;;;;;;;8.80;8.10;;;;;;;;;;5066059;28;24949;-47
2022/07/01 05:45:00;;;;;;;9.37;8.60;;;;;;;;;;5064373;28;24573;-48
2022/07/01 05:47:25;;;;;;;9.77;8.93;;;;;;;;;;5066986;28;24422;-47
2022/07/01 05:49:50;;;;;;;9.63;8.82;;;;;;;;;;5060645;28;24422;-47
2022/07/01 05:52:15;;;;;;;9.73;8.83;;;;;;;;;;5065282;28;24490;-47
2022/07/01 05:54:40;;;;;;;10.00;9.10;;;;;;;;;;5059641;28;24407;-47
2022/07/01 05:57:06;;;;;;;9.07;8.38;;;;;;;;;;5062527;28;24506;-47
2022/07/01 05:59:31;;;;;;;9.33;8.73;;;;;;;;;;5069063;28;24542;-48
2022/07/01 06:01:56;;;;;;;9.63;8.73;;;;;;;;;;5085951;28;24847;-48
2022/07/01 06:04:21;;;;;;;9.30;8.70;;;;;;;;;;5071922;28;25168;-47
2022/07/01 06:06:46;;;;;;;8.70;8.10;;;;;;;;;;5080868;28;24434;-47
2022/07/01 06:09:11;;;;;;;8.93;8.23;;;;;;;;;;5073137;28;24424;-47
2022/07/01 06:11:37;;;;;;;11.18;10.18;;;;;;;;;;5057702;28;24425;-47
2022/07/01 06:14:02;;;;;;;11.80;10.90;;;;;;;;;;5069542;28;24431;-47
2022/07/01 06:16:27;;;;;;;12.50;11.50;;;;;;;;;;5066443;28;25037;-46
2022/07/01 06:18:52;;;;;;;12.40;11.40;;;;;;;;;;5068480;28;24407;-46
2022/07/01 06:21:17;;;;;;;11.90;11.00;;;;;;;;;;5072256;28;24487;-46
2022/07/01 06:23:42;;;;;;;15.50;14.10;;;;;;;;;;5080937;28;24414;-46
2022/07/01 06:26:08;;;;;;;13.55;12.35;;;;;;;;;;5064910;28;24414;-46
2022/07/01 06:28:33;;;;;;;12.87;11.77;;;;;;;;;;5064500;28;24572;-46
2022/07/01 06:30:58;;;;;;;12.48;11.35;;;;;;;;;;5079588;28;24535;-47
2022/07/01 06:33:23;;;;;;;12.70;11.70;;;;;;;;;;5084583;28;24470;-46
2022/07/01 06:35:49;;;;;;;11.67;10.67;;;;;;;;;;5078054;28;24417;-46
2022/07/01 06:38:14;;;;;;;10.20;9.40;;;;;;;;;;5064301;28;24438;-46
2022/07/01 06:40:39;;;;;;;10.75;10.05;;;;;;;;;;5067411;28;24522;-46
2022/07/01 06:43:04;;;;;;;12.40;11.50;;;;;;;;;;5068716;28;24421;-47
2022/07/01 06:45:30;;;;;;;11.07;10.17;;;;;;;;;;5078425;28;24572;-46
2022/07/01 06:47:55;;;;;;;12.00;11.00;;;;;;;;;;5074032;28;24605;-46
2022/07/01 06:50:20;;;;;;;11.13;10.33;;;;;;;;;;5068253;28;24398;-46
2022/07/01 06:52:45;;;;;;;12.50;11.50;;;;;;;;;;5068450;28;24923;-47
2022/07/01 06:55:10;;;;;;;12.33;11.43;;;;;;;;;;5065920;28;24822;-46
2022/07/01 06:57:35;;;;;;;12.15;11.10;;;;;;;;;;5054618;28;24432;-46
2022/07/01 07:00:01;;;;;;;12.73;11.73;;;;;;;;;;5068336;28;24942;-46
2022/07/01 07:02:26;;;;;;;12.20;11.00;;;;;;;;;;5068530;28;24391;-47
2022/07/01 07:04:57;;;;;;;12.85;11.77;;;;;;;;;;5068773;28;24391;-46
2022/07/01 07:07:22;;;;;;;14.55;13.38;;;;;;;;;;5066303;28;24385;-47
2022/07/01 07:09:47;;;;;;;15.05;13.95;;;;;;;;;;5055140;28;24407;-47
2022/07/01 07:12:12;;;;;;;15.50;14.23;;;;;;;;;;5048250;28;24388;-47
2022/07/01 07:14:37;;;;;;;15.17;13.97;;;;;;;;;;5048280;28;24464;-47
2022/07/01 07:17:02;;;;;;;18.10;16.67;;;;;;;;;;5055818;28;24434;-47
2022/07/01 07:19:27;;;;;;;17.50;16.10;;;;;;;;;;5065005;28;25037;-47
2022/07/01 07:21:53;;;;;;;18.52;16.83;;;;;;;;;;5068112;28;24387;-46
2022/07/01 07:24:18;;;;;;;17.47;15.87;;;;;;;;;;5067851;28;24482;-47
2022/07/01 07:26:43;;;;;;;17.02;15.63;;;;;;;;;;5068203;28;24497;-47
2022/07/01 07:29:08;;;;;;;17.85;16.35;;;;;;;;;;5065550;28;24433;-47
2022/07/01 07:31:34;;;;;;;17.08;15.68;;;;;;;;;;5066053;28;24452;-47
2022/07/01 07:33:59;;;;;;;17.00;15.60;;;;;;;;;;5067902;28;24817;-47
2022/07/01 07:36:24;;;;;;;17.50;15.98;;;;;;;;;;5067689;28;24437;-47
2022/07/01 07:38:49;;;;;;;17.00;15.40;;;;;;;;;;5067932;28;24413;-47
2022/07/01 07:41:15;;;;;;;16.80;15.30;;;;;;;;;;5065498;28;24415;-47
2022/07/01 07:43:40;;;;;;;17.47;15.83;;;;;;;;;;5067498;28;24399;-47
2022/07/01 07:46:05;;;;;;;17.90;16.40;;;;;;;;;;5067632;28;24419;-47
2022/07/01 07:48:30;;;;;;;17.03;15.47;;;;;;;;;;5067606;28;24523;-47
2022/07/01 07:50:55;;;;;;;17.60;16.00;;;;;;;;;;5065551;28;24414;-47
2022/07/01 07:53:20;;;;;;;18.80;17.20;;;;;;;;;;5067185;28;24402;-47
2022/07/01 07:55:46;;;;;;;17.43;15.93;;;;;;;;;;5060118;28;24415;-45
2022/07/01 07:58:11;;;;;;;16.98;15.57;;;;;;;;;;5047643;28;24541;-46
2022/07/01 08:00:36;;;;;;;16.20;14.70;;;;;;;;;;5049103;28;24423;-46
2022/07/01 08:03:01;;;;;;;18.57;16.97;;;;;;;;;;5067462;28;24398;-46
2022/07/01 08:05:27;;;;;;;17.85;16.35;;;;;;;;;;5066703;28;24584;-46
2022/07/01 08:07:52;;;;;;;16.70;15.07;;;;;;;;;;5067219;28;24465;-47
2022/07/01 08:10:17;;;;;;;15.00;13.70;;;;;;;;;;5066818;28;24478;-47
2022/07/01 08:12:42;;;;;;;15.32;13.95;;;;;;;;;;5065438;28;24422;-47
2022/07/01 08:15:08;;;;;;;16.27;14.77;;;;;;;;;;5067130;28;24391;-47
2022/07/01 08:17:34;;;;;;;15.30;14.10;;;;;;;;;;5066854;28;24425;-47
2022/07/01 08:19:59;;;;;;;15.47;14.07;;;;;;;;;;5066398;28;24422;-47
2022/07/01 08:22:24;;;;;;;16.17;14.67;;;;;;;;;;5064684;28;24429;-46
2022/07/01 08:24:49;;;;;;;17.33;15.57;;;;;;;;;;5066946;28;24417;-46
2022/07/01 08:27:15;;;;;;;16.40;14.82;;;;;;;;;;5067041;28;24749;-47
2022/07/01 08:29:40;;;;;;;18.43;16.63;;;;;;;;;;5066877;28;24545;-47
2022/07/01 08:32:05;;;;;;;15.57;14.20;;;;;;;;;;5065025;28;24430;-47
2022/07/01 08:34:30;;;;;;;15.60;14.10;;;;;;;;;;5066879;28;24509;-47
2022/07/01 08:36:56;;;;;;;15.93;14.40;;;;;;;;;;5067185;28;24464;-47
2022/07/01 08:39:21;;;;;;;13.73;12.30;;;;;;;;;;5066159;28;24460;-47
2022/07/01 08:41:47;;;;;;;15.55;14.00;;;;;;;;;;5067086;28;24394;-47
2022/07/01 08:44:12;;;;;;;12.38;11.27;;;;;;;;;;5064621;28;24492;-47
2022/07/01 08:46:37;;;;;;;14.10;12.70;;;;;;;;;;5066362;28;24992;-47
2022/07/01 08:49:02;;;;;;;14.23;12.93;;;;;;;;;;5066597;28;24429;-47
2022/07/01 08:51:28;;;;;;;14.03;12.63;;;;;;;;;;5066081;28;24395;-47
2022/07/01 08:53:53;;;;;;;14.50;13.10;;;;;;;;;;5064515;28;25125;-47
2022/07/01 08:59:24;;;;;;;13.00;11.90;;;;;;;;;;5023760;28;24511;-47
2022/07/01 09:02:04;;;;;;;13.00;11.80;;;;;;;;;;5023773;28;24404;-47
2022/07/01 09:04:29;;;;;;;13.32;12.10;;;;;;;;;;5042295;28;25025;-47
2022/07/01 09:07:02;;;;;;;14.52;13.20;;;;;;;;;;5065025;28;24540;-47
2022/07/01 09:09:28;;;;;;;15.25;13.65;;;;;;;;;;5066075;28;24792;-46
2022/07/01 09:11:53;;;;;;;16.17;14.57;;;;;;;;;;5066436;28;24444;-46
2022/07/01 09:14:20;;;;;;;15.60;14.10;;;;;;;;;;5065814;28;24521;-46
2022/07/01 09:16:46;;;;;;;15.60;14.00;;;;;;;;;;5064586;28;24572;-46
2022/07/01 09:19:12;;;;;;;15.77;14.27;;;;;;;;;;5066294;28;24406;-46
2022/07/01 09:21:38;;;;;;;15.30;13.80;;;;;;;;;;5065972;28;24752;-47
2022/07/01 09:24:04;;;;;;;15.10;13.70;;;;;;;;;;5065935;28;24536;-46
2022/07/01 09:26:30;;;;;;;14.80;13.30;;;;;;;;;;5063185;28;24427;-47
2022/07/01 09:28:56;;;;;;;15.00;13.40;;;;;;;;;;5065863;28;24944;-47
2022/07/01 09:31:22;;;;;;;17.30;14.68;;;;;;;;;;5065811;28;24391;-47
2022/07/01 09:34:02;;;;;;;15.95;14.25;;;;;;;;;;5069601;28;24415;-46
2022/07/01 09:36:27;;;;;;;15.55;14.05;;;;;;;;;;5068262;28;24782;-46
2022/07/01 09:38:52;;;;;;;14.70;13.20;;;;;;;;;;5070373;28;24992;-45
2022/07/01 09:41:17;;;;;;;15.82;14.35;;;;;;;;;;5065967;28;24434;-46
2022/07/01 09:43:42;;;;;;;16.23;14.52;;;;;;;;;;5069065;28;24426;-45
2022/07/01 09:46:09;;;;;;;16.67;14.98;;;;;;;;;;5069879;28;25036;-46
2022/07/01 09:48:34;;;;;;;17.15;15.48;;;;;;;;;;5069939;28;24395;-47
2022/07/01 09:51:00;;;;;;;16.83;15.03;;;;;;;;;;5070067;28;24439;-47
2022/07/01 09:53:25;;;;;;;16.20;14.50;;;;;;;;;;5067314;28;24778;-46
2022/07/01 09:55:50;;;;;;;16.73;13.38;;;;;;;;;;5061809;28;24769;-47
2022/07/01 09:58:15;;;;;;;15.33;13.83;;;;;;;;;;5049799;28;24498;-46
2022/07/01 10:00:41;;;;;;;14.70;12.73;;;;;;;;;;5049389;28;24957;-46
2022/07/01 10:03:06;;;;;;;13.20;11.80;;;;;;;;;;5057674;28;25111;-46
2022/07/01 10:05:35;;;;;;;14.43;12.93;;;;;;;;;;5069494;28;24453;-47
2022/07/01 10:08:27;;;;;;;13.02;11.73;;;;;;;;;;5069465;28;24394;-47
2022/07/01 10:11:12;;;;;;;13.10;11.80;;;;;;;;;;5060723;28;24695;-47
2022/07/01 10:13:37;;;;;;;12.82;11.55;;;;;;;;;;5066077;28;24429;-47
2022/07/01 10:16:03;;;;;;;13.33;12.00;;;;;;;;;;5069521;28;24430;-46
2022/07/01 10:18:28;;;;;;;12.60;11.50;;;;;;;;;;5067348;28;24423;-47
2022/07/01 10:20:55;;;;;;;12.57;11.38;;;;;;;;;;5067429;28;24552;-47
2022/07/01 10:23:21;;;;;;;11.70;10.60;;;;;;;;;;5067187;28;24395;-47
2022/07/01 10:25:50;;;;;;;13.20;11.90;;;;;;;;;;5065760;28;24422;-47
2022/07/01 10:28:17;;;;;;;12.83;11.63;;;;;;;;;;5069274;28;24399;-46
2022/07/01 10:30:56;;;;;;;11.57;10.50;;;;;;;;;;5068475;28;24392;-45
2022/07/01 10:33:31;;;;;;;11.32;10.43;;;;;;;;;;5069164;28;24815;-46
2022/07/01 10:36:03;;;;;;;11.20;10.10;;;;;;;;;;5066921;28;24414;-46
2022/07/01 10:38:28;;;;;;;12.23;11.10;;;;;;;;;;5068483;28;24419;-46
2022/07/01 10:40:53;;;;;;;13.30;10.65;;;;;;;;;;5069109;28;24804;-46
2022/07/01 10:43:34;;;;;;;10.40;9.50;;;;;;;;;;5068725;28;24437;-47
2022/07/01 10:45:59;;;;;;;9.23;8.32;;;;;;;;;;5065273;28;24473;-47
2022/07/01 10:48:25;;;;;;;10.07;9.17;;;;;;;;;;5068847;28;24913;-47
2022/07/01 10:50:50;;;;;;;10.23;9.33;;;;;;;;;;5068649;28;24398;-46
2022/07/01 10:53:16;;;;;;;9.50;8.70;;;;;;;;;;5067894;28;24466;-47
2022/07/01 10:55:45;;;;;;;9.63;8.73;;;;;;;;;;5065960;28;24525;-51
2022/07/01 10:58:11;;;;;;;9.48;8.68;;;;;;;;;;5068997;28;24391;-47
2022/07/01 11:00:36;;;;;;;9.30;8.50;;;;;;;;;;5068344;28;24418;-46
2022/07/01 11:03:05;;;;;;;10.47;8.80;;;;;;;;;;5068687;28;24438;-47
2022/07/01 11:05:30;;;;;;;10.48;9.57;;;;;;;;;;5066395;28;24429;-47
2022/07/01 11:07:55;;;;;;;11.73;10.53;;;;;;;;;;5068032;28;24423;-47
2022/07/01 11:10:21;;;;;;;10.27;9.40;;;;;;;;;;5068382;28;24426;-47
2022/07/01 11:12:49;;;;;;;10.10;9.30;;;;;;;;;;5068565;28;24985;-46
2022/07/01 11:15:14;;;;;;;10.70;9.90;;;;;;;;;;5066468;28;24490;-45
2022/07/01 11:17:43;;;;;;;10.10;9.20;;;;;;;;;;5066198;28;24426;-46
2022/07/01 11:20:09;;;;;;;11.35;10.32;;;;;;;;;;5068099;28;24430;-47
2022/07/01 11:22:35;;;;;;;10.50;9.60;;;;;;;;;;5067735;28;24383;-46
2022/07/01 11:25:01;;;;;;;10.77;10.03;;;;;;;;;;5067596;28;24992;-46
2022/07/01 11:27:27;;;;;;;11.13;10.30;;;;;;;;;;5052402;28;24514;-46
2022/07/01 11:29:53;;;;;;;12.20;11.20;;;;;;;;;;5067733;28;24533;-46
2022/07/01 11:32:24;;;;;;;11.43;10.63;;;;;;;;;;5067633;28;24474;-47
2022/07/01 11:34:49;;;;;;;11.90;11.00;;;;;;;;;;5067973;28;24521;-48
2022/07/01 11:40:07;;;;;;;10.70;10.00;;;;;;;;;;5047740;28;24403;-47
2022/07/01 11:42:32;;;;;;;11.40;10.60;;;;;;;;;;5048523;28;24500;-47
2022/07/01 11:44:57;;;;;;;12.50;11.60;;;;;;;;;;5067651;28;24494;-47
2022/07/01 11:47:23;;;;;;;13.20;12.20;;;;;;;;;;5068138;28;24475;-47
2022/07/01 11:49:49;;;;;;;12.55;11.65;;;;;;;;;;5065368;28;24635;-47
2022/07/01 11:52:15;;;;;;;12.68;11.88;;;;;;;;;;5067580;28;24410;-47
2022/07/01 11:54:41;;;;;;;10.88;10.07;;;;;;;;;;5066858;28;24524;-47
2022/07/01 11:57:09;;;;;;;9.25;8.65;;;;;;;;;;5054798;28;24495;-47
2022/07/01 11:59:36;;;;;;;10.10;9.30;;;;;;;;;;5055697;28;24430;-46
2022/07/01 12:02:01;;;;;;;9.38;8.57;;;;;;;;;;5067148;28;24398;-46
2022/07/01 12:04:29;;;;;;;9.00;8.40;;;;;;;;;;5067814;28;24415;-46
2022/07/01 12:06:54;;;;;;;7.30;6.80;;;;;;;;;;5067528;28;24403;-46
2022/07/01 12:09:20;;;;;;;6.90;6.40;;;;;;;;;;5056185;28;24545;-47
2022/07/01 12:11:46;;;;;;;7.30;6.70;;;;;;;;;;5053883;28;24439;-45
2022/07/01 12:14:11;;;;;;;7.45;6.85;;;;;;;;;;5047573;28;24436;-47
2022/07/01 12:16:40;;;;;;;7.67;7.07;;;;;;;;;;5046939;28;24968;-48
2022/07/01 12:19:06;;;;;;;8.10;7.40;;;;;;;;;;5057371;28;25045;-48
2022/07/01 12:21:47;;;;;;;8.77;8.07;;;;;;;;;;5062838;28;24506;-48
2022/07/01 12:24:13;;;;;;;8.10;7.50;;;;;;;;;;5059658;28;24913;-48
2022/07/01 12:27:04;;;;;;;7.95;7.35;;;;;;;;;;5063163;28;25161;-48
2022/07/01 12:29:31;;;;;;;8.40;7.70;;;;;;;;;;5066963;28;24501;-48
2022/07/01 12:32:03;;;;;;;7.78;7.18;;;;;;;;;;5046839;28;24854;-48
2022/07/01 12:34:42;;;;;;;7.30;6.70;;;;;;;;;;5047173;28;24477;-48
2022/07/01 12:37:09;;;;;;;6.75;6.30;;;;;;;;;;5053592;28;24399;-51
2022/07/01 12:39:41;;;;;;;6.60;6.10;;;;;;;;;;5062007;28;24563;-48
2022/07/01 12:42:06;;;;;;;6.95;6.25;;;;;;;;;;5053441;28;24597;-48
2022/07/01 12:44:31;;;;;;;5.80;5.25;;;;;;;;;;5055071;28;24540;-48
2022/07/01 12:46:56;;;;;;;5.40;4.90;;;;;;;;;;5055073;28;24425;-48
2022/07/01 12:49:22;;;;;;;4.20;3.80;;;;;;;;;;5066441;28;24897;-48
2022/07/01 12:51:47;;;;;;;3.42;3.20;;;;;;;;;;5058502;28;24501;-48
2022/07/01 12:54:29;;;;;;;3.60;3.30;;;;;;;;;;5065430;28;24689;-47
2022/07/01 12:56:54;;;;;;;3.33;3.13;;;;;;;;;;5063783;28;24473;-47
2022/07/01 12:59:19;;;;;;;3.50;3.20;;;;;;;;;;5054334;28;24509;-47
2022/07/01 13:01:44;;;;;;;3.40;3.10;;;;;;;;;;5064482;28;24450;-47
2022/07/01 13:04:09;;;;;;;2.70;2.60;;;;;;;;;;5055271;28;25266;-47
2022/07/01 13:06:34;;;;;;;3.05;2.75;;;;;;;;;;5062678;28;24468;-48
2022/07/01 13:08:59;;;;;;;3.10;2.90;;;;;;;;;;5065013;28;24453;-48
2022/07/01 13:11:24;;;;;;;2.90;2.70;;;;;;;;;;5061403;28;24811;-47
2022/07/01 13:13:50;;;;;;;3.00;2.80;;;;;;;;;;5056318;28;24426;-48
2022/07/01 13:16:15;;;;;;;3.78;3.50;;;;;;;;;;5050211;28;24506;-47
2022/07/01 13:18:40;;;;;;;2.60;2.40;;;;;;;;;;5052350;28;25003;-48
2022/07/01 13:21:05;;;;;;;2.80;2.60;;;;;;;;;;5061236;28;24414;-47
2022/07/01 13:23:30;;;;;;;2.70;2.50;;;;;;;;;;5052848;28;24484;-47
2022/07/01 13:25:55;;;;;;;2.80;2.70;;;;;;;;;;5059144;28;24418;-47
2022/07/01 13:28:21;;;;;;;2.70;2.60;;;;;;;;;;5051709;28;24423;-47
2022/07/01 13:30:46;;;;;;;2.97;2.77;;;;;;;;;;5055381;28;24785;-47
2022/07/01 13:33:11;;;;;;;2.83;2.70;;;;;;;;;;5059611;28;24422;-47
2022/07/01 13:35:36;;;;;;;2.90;2.80;;;;;;;;;;5058048;28;24523;-47
2022/07/01 13:38:01;;;;;;;3.60;3.40;;;;;;;;;;5063023;28;24985;-47
2022/07/01 13:40:27;;;;;;;3.70;3.50;;;;;;;;;;5057813;28;24696;-47
2022/07/01 13:42:52;;;;;;;4.90;4.60;;;;;;;;;;5061468;28;24415;-47
2022/07/01 13:45:17;;;;;;;5.50;5.20;;;;;;;;;;5063934;28;24508;-47
2022/07/01 13:47:42;;;;;;;5.68;5.28;;;;;;;;;;5056344;28;24509;-47
2022/07/01 13:50:08;;;;;;;6.30;5.90;;;;;;;;;;5062737;28;24414;-47
2022/07/01 13:52:33;;;;;;;7.28;6.78;;;;;;;;;;5061086;28;24468;-48
2022/07/01 13:54:58;;;;;;;7.90;7.40;;;;;;;;;;5054906;28;24785;-47
2022/07/01 13:57:24;;;;;;;9.10;8.50;;;;;;;;;;5060145;28;24425;-47
2022/07/01 13:59:49;;;;;;;8.13;7.53;;;;;;;;;;5065278;28;24480;-47
2022/07/01 14:02:14;;;;;;;9.17;8.50;;;;;;;;;;5056884;28;24585;-47
2022/07/01 14:04:39;;;;;;;10.00;9.20;;;;;;;;;;5064663;28;24948;-47
2022/07/01 14:07:05;;;;;;;9.05;8.45;;;;;;;;;;5063461;28;24952;-47
2022/07/01 14:09:30;;;;;;;10.50;9.70;;;;;;;;;;5065127;28;24444;-46
2022/07/01 14:11:56;;;;;;;10.57;9.87;;;;;;;;;;5063765;28;24419;-47
2022/07/01 14:14:21;;;;;;;10.83;10.13;;;;;;;;;;5063374;28;25048;-47
2022/07/01 14:16:46;;;;;;;10.32;9.73;;;;;;;;;;5061797;28;24419;-47
2022/07/01 14:19:11;;;;;;;9.43;8.83;;;;;;;;;;5058248;28;24437;-47
2022/07/01 14:21:36;;;;;;;9.50;8.90;;;;;;;;;;5064711;28;24445;-47
2022/07/01 14:24:03;;;;;;;10.87;10.13;;;;;;;;;;5067890;28;24429;-47
2022/07/01 14:26:28;;;;;;;11.20;10.40;;;;;;;;;;5062049;28;24446;-47
2022/07/01 14:28:53;;;;;;;11.65;10.68;;;;;;;;;;5050357;28;24458;-47
2022/07/01 14:31:18;;;;;;;9.00;8.40;;;;;;;;;;5050553;28;24427;-48
2022/07/01 14:33:45;;;;;;;9.68;8.98;;;;;;;;;;5050312;28;24453;-47